createdAt,value
2023-04-25T00:02:04.868Z,100041.25
2023-04-25T00:04:34.255Z,100042.34
2023-04-25T00:07:03.658Z,100048.03
2023-04-25T00:09:31.358Z,100046.75
2023-04-25T00:11:58.827Z,100055.50
2023-04-25T00:14:26.265Z,100046.91
2023-04-25T00:16:54.764Z,100044.91
2023-04-25T00:19:22.216Z,100053.75
2023-04-25T00:21:50.006Z,100057.81
2023-04-25T00:24:18.879Z,100058.59
2023-04-25T00:26:46.337Z,100053.97
2023-04-25T00:29:13.770Z,100052.34
2023-04-25T00:31:41.328Z,100057.16
2023-04-25T00:34:09.198Z,100045.63
2023-04-25T00:36:37.178Z,100053.78
2023-04-25T00:39:05.527Z,100053.50
2023-04-25T00:41:34.732Z,100057.81
2023-04-25T00:44:02.833Z,100059.84
2023-04-25T00:46:30.621Z,100047.78
2023-04-25T00:48:58.109Z,100049.94
2023-04-25T00:51:26.540Z,100042.56
2023-04-25T00:53:54.217Z,100048.16
2023-04-25T00:56:22.207Z,100048.47
2023-04-25T00:58:51.862Z,100042.78
2023-04-25T01:01:19.634Z,100041.72
2023-04-25T01:03:48.486Z,100040.84
2023-04-25T01:06:16.073Z,100036.13
2023-04-25T01:08:43.683Z,100034.03
2023-04-25T01:11:11.170Z,100028.59
2023-04-25T01:13:38.619Z,100023.28
2023-04-25T01:16:07.935Z,100028.22
2023-04-25T01:18:35.503Z,100035.47
2023-04-25T01:21:10.870Z,100038.78
2023-04-25T01:23:38.525Z,100033.00
2023-04-25T01:26:06.317Z,100036.94
2023-04-25T01:28:35.402Z,100042.09
2023-04-25T01:31:03.416Z,100043.59
2023-04-25T01:33:31.146Z,100040.47
2023-04-25T01:35:58.616Z,100032.59
2023-04-25T01:38:27.424Z,100029.69
2023-04-25T01:40:55.757Z,100033.16
2023-04-25T01:43:23.628Z,100034.06
2023-04-25T01:45:52.370Z,100035.75
2023-04-25T01:48:20.031Z,100034.53
2023-04-25T01:50:47.730Z,100040.31
2023-04-25T01:53:16.221Z,100041.69
2023-04-25T01:55:45.166Z,100038.28
2023-04-25T01:58:13.867Z,100041.41
2023-04-25T02:00:41.874Z,100040.41
2023-04-25T02:03:10.095Z,100039.56
2023-04-25T02:05:38.434Z,100039.56
2023-04-25T02:08:07.353Z,100040.69
2023-04-25T02:10:34.904Z,100050.94
2023-04-25T02:13:03.933Z,100045.88
2023-04-25T02:15:31.443Z,100040.50
2023-04-25T02:18:00.973Z,100039.13
2023-04-25T02:20:29.526Z,100036.78
2023-04-25T02:22:56.992Z,100035.16
2023-04-25T02:25:24.864Z,100041.78
2023-04-25T02:27:52.475Z,100027.84
2023-04-25T02:30:21.356Z,100036.16
2023-04-25T02:32:48.933Z,100034.34
2023-04-25T02:35:16.691Z,100032.06
2023-04-25T02:37:44.278Z,100023.56
2023-04-25T02:40:12.225Z,100021.66
2023-04-25T02:42:39.674Z,100031.81
2023-04-25T02:45:07.915Z,100033.97
2023-04-25T02:47:36.757Z,100030.88
2023-04-25T02:50:04.849Z,100027.41
2023-04-25T02:52:32.368Z,100033.06
2023-04-25T02:54:59.845Z,100024.22
2023-04-25T02:57:27.339Z,100029.53
2023-04-25T02:59:54.774Z,100026.97
2023-04-25T03:02:22.286Z,100025.31
2023-04-25T03:04:51.168Z,100027.19
2023-04-25T03:07:18.632Z,100027.78
2023-04-25T03:09:46.090Z,100024.88
2023-04-25T03:12:13.547Z,100025.38
2023-04-25T03:14:41.015Z,100033.16
2023-04-25T03:17:08.489Z,100032.97
2023-04-25T03:19:35.910Z,100032.72
2023-04-25T03:22:04.737Z,100030.44
2023-04-25T03:24:32.251Z,100029.50
2023-04-25T03:26:59.706Z,100033.34
2023-04-25T03:29:28.577Z,100038.63
2023-04-25T03:31:56.138Z,100032.44
2023-04-25T03:34:24.872Z,100038.28
2023-04-25T03:36:52.410Z,100040.38
2023-04-25T03:39:21.209Z,100045.03
2023-04-25T03:41:48.693Z,100037.25
2023-04-25T03:44:16.341Z,100038.09
2023-04-25T03:46:43.810Z,100038.53
2023-04-25T03:49:11.290Z,100039.38
2023-04-25T03:51:38.730Z,100034.13
2023-04-25T03:54:06.246Z,100034.09
2023-04-25T03:56:35.066Z,100042.06
2023-04-25T03:59:02.518Z,100047.53
2023-04-25T04:01:30.183Z,100048.97
2023-04-25T04:03:57.955Z,100058.66
2023-04-25T04:06:26.427Z,100059.09
2023-04-25T04:08:53.930Z,100053.66
2023-04-25T04:11:21.475Z,100062.84
2023-04-25T04:13:50.487Z,100063.13
2023-04-25T04:16:18.169Z,100075.53
2023-04-25T04:18:46.687Z,100067.59
2023-04-25T04:21:14.161Z,100077.69
2023-04-25T04:23:41.767Z,100066.66
2023-04-25T04:26:09.528Z,100080.28
2023-04-25T04:28:37.063Z,100087.94
2023-04-25T04:31:05.942Z,100083.34
2023-04-25T04:33:33.477Z,100088.66
2023-04-25T04:36:01.814Z,100083.47
2023-04-25T04:38:29.370Z,100086.44
2023-04-25T04:40:56.926Z,100082.66
2023-04-25T04:43:25.082Z,100092.69
2023-04-25T04:45:53.231Z,100093.88
2023-04-25T04:48:22.224Z,100097.81
2023-04-25T04:50:49.691Z,100099.50
2023-04-25T04:53:17.146Z,100107.72
2023-04-25T04:55:44.653Z,100117.59
2023-04-25T04:58:12.148Z,100117.84
2023-04-25T05:00:39.589Z,100124.56
2023-04-25T05:03:07.474Z,100133.63
2023-04-25T05:05:36.418Z,100127.84
2023-04-25T05:08:03.905Z,100128.09
2023-04-25T05:10:31.371Z,100129.16
2023-04-25T05:12:58.827Z,100137.47
2023-04-25T05:15:26.457Z,100132.38
2023-04-25T05:17:54.064Z,100133.28
2023-04-25T05:20:21.584Z,100135.53
2023-04-25T05:22:50.379Z,100142.53
2023-04-25T05:25:18.047Z,100136.00
2023-04-25T05:27:45.550Z,100150.41
2023-04-25T05:30:13.413Z,100151.41
2023-04-25T05:32:41.414Z,100148.41
2023-04-25T05:35:09.915Z,100150.34
2023-04-25T05:37:37.514Z,100158.34
2023-04-25T05:40:08.480Z,100151.88
2023-04-25T05:42:36.008Z,100149.50
2023-04-25T05:45:05.391Z,100155.50
2023-04-25T05:47:32.873Z,100157.19
2023-04-25T05:50:00.317Z,100150.56
2023-04-25T05:52:27.820Z,100155.38
2023-04-25T05:54:55.334Z,100156.66
2023-04-25T05:57:27.125Z,100153.91
2023-04-25T05:59:54.823Z,100152.19
2023-04-25T06:02:22.805Z,100161.00
2023-04-25T06:04:52.172Z,100156.50
2023-04-25T06:07:20.082Z,100147.84
2023-04-25T06:09:47.904Z,100150.84
2023-04-25T06:12:15.459Z,100150.91
2023-04-25T06:14:44.294Z,100155.25
2023-04-25T06:17:11.735Z,100159.25
2023-04-25T06:19:39.208Z,100160.06
2023-04-25T06:22:08.154Z,100154.69
2023-04-25T06:24:35.672Z,100159.81
2023-04-25T06:27:03.595Z,100161.53
2023-04-25T06:29:31.038Z,100175.56
2023-04-25T06:31:59.822Z,100167.84
2023-04-25T06:34:27.272Z,100162.13
2023-04-25T06:36:54.792Z,100168.81
2023-04-25T06:39:24.163Z,100171.09
2023-04-25T06:41:51.667Z,100164.97
2023-04-25T06:44:19.106Z,100164.94
2023-04-25T06:46:46.779Z,100169.31
2023-04-25T06:49:15.600Z,100165.72
2023-04-25T06:51:43.215Z,100171.38
2023-04-25T06:54:10.705Z,100172.91
2023-04-25T06:56:38.193Z,100168.06
2023-04-25T06:59:05.651Z,100168.28
2023-04-25T07:01:33.088Z,100165.91
2023-04-25T07:04:00.727Z,100169.97
2023-04-25T07:06:29.906Z,100166.56
2023-04-25T07:08:57.357Z,100173.72
2023-04-25T07:11:24.921Z,100182.09
2023-04-25T07:13:52.402Z,100186.72
2023-04-25T07:16:19.876Z,100196.03
2023-04-25T07:18:47.327Z,100196.88
2023-04-25T07:21:14.762Z,100190.38
2023-04-25T07:23:43.603Z,100208.88
2023-04-25T07:26:11.066Z,100198.59
2023-04-25T07:28:38.562Z,100195.59
2023-04-25T07:31:06.098Z,100204.94
2023-04-25T07:33:33.555Z,100205.91
2023-04-25T07:36:01.149Z,100207.13
2023-04-25T07:38:28.781Z,100200.34
2023-04-25T07:40:57.599Z,100199.59
2023-04-25T07:43:25.265Z,100207.06
2023-04-25T07:45:52.786Z,100207.34
2023-04-25T07:48:20.756Z,100213.66
2023-04-25T07:50:48.315Z,100214.31
2023-04-25T07:53:16.715Z,100213.44
2023-04-25T07:55:44.162Z,100217.72
2023-04-25T07:58:13.657Z,100217.75
2023-04-25T08:00:42.500Z,100221.19
2023-04-25T08:03:11.796Z,100227.78
2023-04-25T08:05:39.574Z,100218.56
2023-04-25T08:08:07.718Z,100221.34
2023-04-25T08:10:35.211Z,100228.53
2023-04-25T08:13:03.387Z,100228.00
2023-04-25T08:15:32.405Z,100228.16
2023-04-25T08:18:00.484Z,100234.25
2023-04-25T08:20:28.017Z,100241.47
2023-04-25T08:22:55.532Z,100238.16
2023-04-25T08:25:22.982Z,100240.72
2023-04-25T08:27:50.447Z,100240.41
2023-04-25T08:30:17.889Z,100250.28
2023-04-25T08:32:46.734Z,100249.00
2023-04-25T08:35:14.197Z,100256.09
2023-04-25T08:37:42.311Z,100253.72
2023-04-25T08:40:14.063Z,100258.06
2023-04-25T08:42:43.070Z,100257.25
2023-04-25T08:45:11.305Z,100264.09
2023-04-25T08:47:40.584Z,100270.06
2023-04-25T08:50:09.840Z,100267.34
2023-04-25T08:52:39.430Z,100276.94
2023-04-25T08:55:09.332Z,100276.91
2023-04-25T08:57:37.290Z,100265.97
2023-04-25T09:00:06.791Z,100267.47
2023-04-25T09:02:34.573Z,100279.50
2023-04-25T09:05:02.217Z,100275.78
2023-04-25T09:07:31.048Z,100291.53
2023-04-25T09:10:00.620Z,100289.97
2023-04-25T09:12:29.010Z,100300.94
2023-04-25T09:15:05.204Z,100296.50
2023-04-25T09:17:32.748Z,100307.50
2023-04-25T09:20:08.270Z,100307.34
2023-04-25T09:22:38.347Z,100309.63
2023-04-25T09:25:10.142Z,100309.91
2023-04-25T09:27:37.726Z,100316.47
2023-04-25T09:30:06.184Z,100314.97
2023-04-25T09:32:33.753Z,100307.38
2023-04-25T09:35:01.545Z,100323.53
2023-04-25T09:37:30.564Z,100325.28
2023-04-25T09:40:03.567Z,100320.78
2023-04-25T09:42:32.724Z,100334.66
2023-04-25T09:45:02.747Z,100327.34
2023-04-25T09:47:30.372Z,100325.69
2023-04-25T09:49:57.912Z,100333.47
2023-04-25T09:52:26.768Z,100336.84
2023-04-25T09:54:54.680Z,100325.00
2023-04-25T09:57:24.644Z,100329.59
2023-04-25T09:59:53.950Z,100329.84
2023-04-25T10:02:25.993Z,100341.44
2023-04-25T10:04:55.996Z,100335.69
2023-04-25T10:07:26.782Z,100332.19
2023-04-25T10:09:57.170Z,100347.00
2023-04-25T10:12:25.971Z,100344.97
2023-04-25T10:14:54.738Z,100344.44
2023-04-25T10:17:22.895Z,100345.13
2023-04-25T10:19:51.104Z,100345.22
2023-04-25T10:22:20.767Z,100350.00
2023-04-25T10:24:48.531Z,100350.44
2023-04-25T10:27:16.437Z,100351.63
2023-04-25T10:29:45.380Z,100354.84
2023-04-25T10:32:12.846Z,100357.66
2023-04-25T10:34:41.932Z,100355.50
2023-04-25T10:37:12.602Z,100348.41
2023-04-25T10:39:41.236Z,100357.84
2023-04-25T10:42:09.601Z,100358.09
2023-04-25T10:44:39.537Z,100366.72
2023-04-25T10:47:09.331Z,100357.28
2023-04-25T10:49:38.369Z,100364.69
2023-04-25T10:52:14.903Z,100370.84
2023-04-25T10:54:44.012Z,100375.13
2023-04-25T10:57:30.601Z,100375.78
2023-04-25T11:00:01.805Z,100366.97
2023-04-25T11:02:31.705Z,100376.59
2023-04-25T11:04:59.266Z,100378.88
2023-04-25T11:07:33.995Z,100384.63
2023-04-25T11:10:03.923Z,100378.72
2023-04-25T11:12:32.116Z,100386.41
2023-04-25T11:15:03.777Z,100386.16
2023-04-25T11:17:32.736Z,100384.78
2023-04-25T11:20:00.280Z,100387.19
2023-04-25T11:22:28.958Z,100394.56
2023-04-25T11:24:56.464Z,100396.00
2023-04-25T11:27:25.670Z,100386.41
2023-04-25T11:29:53.116Z,100400.28
2023-04-25T11:32:23.283Z,100406.41
2023-04-25T11:34:54.490Z,100395.00
2023-04-25T11:37:22.054Z,100401.59
2023-04-25T11:39:49.917Z,100394.22
2023-04-25T11:42:17.624Z,100408.78
2023-04-25T11:44:45.504Z,100413.84
2023-04-25T11:47:13.013Z,100409.38
2023-04-25T11:49:40.695Z,100419.00
2023-04-25T11:52:09.672Z,100418.63
2023-04-25T11:54:38.048Z,100423.38
2023-04-25T11:57:05.878Z,100418.88
2023-04-25T11:59:33.398Z,100428.75
2023-04-25T12:02:10.582Z,100430.78
2023-04-25T12:04:39.297Z,100433.22
2023-04-25T12:07:06.935Z,100434.03
2023-04-25T12:09:35.799Z,100434.25
2023-04-25T12:12:04.622Z,100426.81
2023-04-25T12:14:33.489Z,100434.09
2023-04-25T12:17:01.872Z,100432.97
2023-04-25T12:19:34.823Z,100429.81
2023-04-25T12:22:03.916Z,100424.75
2023-04-25T12:24:31.905Z,100428.88
2023-04-25T12:27:03.827Z,100424.84
2023-04-25T12:29:41.978Z,100423.97
2023-04-25T12:32:16.613Z,100426.41
2023-04-25T12:34:44.238Z,100433.13
2023-04-25T12:37:12.301Z,100437.63
2023-04-25T12:39:40.085Z,100439.25
2023-04-25T12:42:12.388Z,100442.31
2023-04-25T12:44:39.932Z,100437.50
2023-04-25T12:47:07.629Z,100441.16
2023-04-25T12:49:35.211Z,100444.69
2023-04-25T12:52:02.759Z,100446.31
2023-04-25T12:54:30.713Z,100450.22
2023-04-25T12:56:58.420Z,100452.22
2023-04-25T12:59:27.708Z,100449.72
2023-04-25T13:01:55.230Z,100457.94
2023-04-25T13:04:22.918Z,100451.00
2023-04-25T13:06:50.515Z,100456.34
2023-04-25T13:09:17.963Z,100460.00
2023-04-25T13:11:46.037Z,100458.47
2023-04-25T13:14:13.564Z,100463.44
2023-04-25T13:16:42.686Z,100453.16
2023-04-25T13:19:12.343Z,100456.38
2023-04-25T13:21:40.152Z,100459.63
2023-04-25T13:24:08.244Z,100459.47
2023-04-25T13:26:35.762Z,100455.78
2023-04-25T13:29:04.527Z,100454.41
2023-04-25T13:31:33.125Z,100459.78
2023-04-25T13:34:01.963Z,100465.75
2023-04-25T13:36:29.859Z,100451.00
2023-04-25T13:38:57.303Z,100457.25
2023-04-25T13:41:24.746Z,100455.59
2023-04-25T13:43:53.189Z,100465.50
2023-04-25T13:46:40.800Z,100461.75
2023-04-25T13:49:13.126Z,100464.97
2023-04-25T13:51:40.883Z,100464.84
2023-04-25T13:54:08.530Z,100471.50
2023-04-25T13:56:36.236Z,100459.41
2023-04-25T13:59:03.818Z,100465.84
2023-04-25T14:01:32.046Z,100465.78
2023-04-25T14:03:59.625Z,100468.94
2023-04-25T14:06:29.256Z,100466.91
2023-04-25T14:08:57.319Z,100480.34
2023-04-25T14:11:24.773Z,100485.31
2023-04-25T14:13:52.604Z,100476.22
2023-04-25T14:16:20.557Z,100468.44
2023-04-25T14:18:48.051Z,100483.25
2023-04-25T14:21:15.610Z,100475.00
2023-04-25T14:23:44.391Z,100474.38
2023-04-25T14:26:13.506Z,100471.38
2023-04-25T14:28:41.164Z,100460.66
2023-04-25T14:31:08.716Z,100472.41
2023-04-25T14:33:36.300Z,100471.81
2023-04-25T14:36:04.099Z,100477.41
2023-04-25T14:38:31.579Z,100474.72
2023-04-25T14:41:00.635Z,100488.22
2023-04-25T14:43:28.130Z,100479.63
2023-04-25T14:45:58.243Z,100491.47
2023-04-25T14:48:26.380Z,100503.00
2023-04-25T14:50:53.924Z,100493.81
2023-04-25T14:53:21.447Z,100489.19
2023-04-25T14:55:49.680Z,100493.53
2023-04-25T14:58:18.576Z,100497.28
2023-04-25T15:00:46.437Z,100502.75
2023-04-25T15:03:14.503Z,100506.94
2023-04-25T15:05:42.555Z,100508.66
2023-04-25T15:08:11.262Z,100528.66
2023-04-25T15:10:38.943Z,100516.22
2023-04-25T15:13:06.508Z,100523.31
2023-04-25T15:15:35.639Z,100515.25
2023-04-25T15:18:03.133Z,100518.88
2023-04-25T15:20:30.615Z,100521.94
2023-04-25T15:22:58.442Z,100517.78
2023-04-25T15:25:26.268Z,100516.41
2023-04-25T15:27:54.438Z,100523.75
2023-04-25T15:30:22.055Z,100511.31
2023-04-25T15:32:51.113Z,100517.97
2023-04-25T15:35:18.600Z,100523.31
2023-04-25T15:37:46.200Z,100526.78
2023-04-25T15:40:17.496Z,100516.00
2023-04-25T15:42:47.742Z,100525.88
2023-04-25T15:45:17.575Z,100524.81
2023-04-25T15:47:45.879Z,100526.69
2023-04-25T15:50:15.899Z,100531.72
2023-04-25T15:52:43.820Z,100515.50
2023-04-25T15:55:12.794Z,100525.19
2023-04-25T15:57:41.864Z,100516.41
2023-04-25T16:00:13.003Z,100515.19
2023-04-25T16:02:41.483Z,100516.84
2023-04-25T16:05:11.097Z,100507.47
2023-04-25T16:07:40.855Z,100522.94
2023-04-25T16:10:09.446Z,100515.81
2023-04-25T16:12:37.444Z,100513.34
2023-04-25T16:15:05.282Z,100510.25
2023-04-25T16:17:33.306Z,100515.03
2023-04-25T16:20:01.817Z,100518.97
2023-04-25T16:22:29.424Z,100522.19
2023-04-25T16:24:58.209Z,100520.28
2023-04-25T16:27:25.710Z,100527.66
2023-04-25T16:29:53.154Z,100525.25
2023-04-25T16:32:20.712Z,100524.09
2023-04-25T16:34:48.160Z,100528.38
2023-04-25T16:37:15.615Z,100530.72
2023-04-25T16:39:43.088Z,100531.63
2023-04-25T16:42:11.921Z,100533.06
2023-04-25T16:44:39.389Z,100532.06
2023-04-25T16:47:06.896Z,100530.19
2023-04-25T16:49:34.518Z,100540.75
2023-04-25T16:52:02.031Z,100538.34
2023-04-25T16:54:29.468Z,100538.97
2023-04-25T16:56:56.902Z,100541.81
2023-04-25T16:59:25.675Z,100545.47
2023-04-25T17:01:53.235Z,100542.16
2023-04-25T17:04:20.860Z,100544.16
2023-04-25T17:06:48.572Z,100535.03
2023-04-25T17:09:16.056Z,100543.09
2023-04-25T17:11:43.654Z,100552.16
2023-04-25T17:14:11.101Z,100545.63
2023-04-25T17:16:40.562Z,100551.53
2023-04-25T17:19:08.506Z,100557.25
2023-04-25T17:21:36.009Z,100559.03
2023-04-25T17:24:06.002Z,100561.88
2023-04-25T17:26:33.511Z,100557.38
2023-04-25T17:29:00.960Z,100564.25
2023-04-25T17:31:28.574Z,100561.19
2023-04-25T17:33:57.590Z,100576.47
2023-04-25T17:36:25.171Z,100575.41
2023-04-25T17:38:52.908Z,100577.00
2023-04-25T17:41:20.930Z,100582.06
2023-04-25T17:43:48.408Z,100590.47
2023-04-25T17:46:15.951Z,100589.94
2023-04-25T17:48:43.438Z,100590.97
2023-04-25T17:51:12.250Z,100596.13
2023-04-25T17:53:39.671Z,100595.16
2023-04-25T17:56:19.391Z,100589.81
2023-04-25T17:58:54.116Z,100592.66
2023-04-25T18:01:22.070Z,100590.25
2023-04-25T18:03:50.310Z,100590.44
2023-04-25T18:06:19.482Z,100600.72
2023-04-25T18:08:47.283Z,100607.44
2023-04-25T18:11:15.082Z,100607.81
2023-04-25T18:13:43.111Z,100606.16
2023-04-25T18:16:10.756Z,100618.75
2023-04-25T18:18:38.197Z,100614.94
2023-04-25T18:21:07.727Z,100627.53
2023-04-25T18:23:37.738Z,100632.00
2023-04-25T18:26:06.028Z,100633.88
2023-04-25T18:28:34.240Z,100633.13
2023-04-25T18:31:02.002Z,100633.22
2023-04-25T18:33:29.505Z,100639.66
2023-04-25T18:35:59.815Z,100640.44
2023-04-25T18:41:14.975Z,100644.88
2023-04-25T18:43:46.873Z,100645.88
2023-04-25T18:46:14.360Z,100651.72
2023-04-25T18:48:42.834Z,100649.47
2023-04-25T18:51:10.549Z,100660.03
2023-04-25T18:53:38.286Z,100659.00
2023-04-25T18:56:07.452Z,100666.19
2023-04-25T18:58:34.935Z,100664.69
2023-04-25T19:01:03.656Z,100674.75
2023-04-25T19:03:31.550Z,100677.50
2023-04-25T19:05:59.237Z,100682.50
2023-04-25T19:08:27.476Z,100685.56
2023-04-25T19:10:55.397Z,100680.91
2023-04-25T19:13:24.390Z,100676.63
2023-04-25T19:15:51.858Z,100682.81
2023-04-25T19:18:19.460Z,100680.31
2023-04-25T19:20:47.175Z,100683.44
2023-04-25T19:23:14.670Z,100694.50
2023-04-25T19:25:42.601Z,100697.34
2023-04-25T19:28:12.765Z,100697.94
2023-04-25T19:30:41.734Z,100698.19
2023-04-25T19:33:09.351Z,100699.31
2023-04-25T19:35:36.942Z,100696.94
2023-04-25T19:38:04.564Z,100697.94
2023-04-25T19:40:32.033Z,100703.31
2023-04-25T19:42:59.578Z,100706.91
2023-04-25T19:45:27.106Z,100713.78
2023-04-25T19:47:56.031Z,100724.72
2023-04-25T19:50:23.700Z,100717.47
2023-04-25T19:52:51.966Z,100721.06
2023-04-25T19:55:19.526Z,100721.44
2023-04-25T19:57:47.474Z,100717.81
2023-04-25T20:00:19.223Z,100719.94
2023-04-25T20:02:47.799Z,100716.69
2023-04-25T20:05:17.776Z,100720.31
2023-04-25T20:07:45.478Z,100714.84
2023-04-25T20:10:13.992Z,100723.31
2023-04-25T20:12:41.544Z,100719.38
2023-04-25T20:15:09.715Z,100726.66
2023-04-25T20:17:37.232Z,100734.25
2023-04-25T20:20:06.352Z,100731.28
2023-04-25T20:22:38.595Z,100733.09
2023-04-25T20:25:08.199Z,100737.88
2023-04-25T20:27:37.742Z,100742.13
2023-04-25T20:30:07.922Z,100745.75
2023-04-25T20:32:35.849Z,100736.06
2023-04-25T20:35:03.964Z,100740.72
2023-04-25T20:37:32.461Z,100743.38
2023-04-25T20:40:01.767Z,100744.91
2023-04-25T20:42:29.258Z,100746.22
2023-04-25T20:44:56.805Z,100739.75
2023-04-25T20:47:24.617Z,100741.94
2023-04-25T20:49:52.238Z,100741.97
2023-04-25T20:52:19.744Z,100744.13
2023-04-25T20:54:50.150Z,100761.31
2023-04-25T20:57:18.980Z,100756.34
2023-04-25T20:59:47.138Z,100758.50
2023-04-25T21:02:15.907Z,100754.38
2023-04-25T21:04:44.008Z,100750.69
2023-04-25T21:07:12.985Z,100745.44
2023-04-25T21:09:40.677Z,100756.34
2023-04-25T21:12:08.561Z,100749.31
2023-04-25T21:14:37.341Z,100757.25
2023-04-25T21:17:05.114Z,100763.81
2023-04-25T21:19:33.023Z,100757.66
2023-04-25T21:22:01.676Z,100762.47
2023-04-25T21:24:31.021Z,100761.53
2023-04-25T21:26:58.494Z,100760.94
2023-04-25T21:29:26.013Z,100757.38
2023-04-25T21:31:54.848Z,100763.41
2023-04-25T21:34:22.622Z,100763.34
2023-04-25T21:36:50.084Z,100758.13
2023-04-25T21:39:17.563Z,100756.72
2023-04-25T21:41:45.033Z,100754.31
2023-04-25T21:44:14.399Z,100756.56
2023-04-25T21:46:42.003Z,100759.84
2023-04-25T21:49:11.443Z,100753.88
2023-04-25T21:51:38.961Z,100758.31
2023-04-25T21:54:09.640Z,100760.59
2023-04-25T21:56:37.138Z,100756.97
2023-04-25T21:59:04.620Z,100761.28
2023-04-25T22:01:32.195Z,100770.63
2023-04-25T22:04:00.002Z,100769.06
2023-04-25T22:06:29.521Z,100767.25
2023-04-25T22:08:56.980Z,100769.97
2023-04-25T22:11:26.390Z,100774.09
2023-04-25T22:13:54.411Z,100774.78
2023-04-25T22:16:21.966Z,100780.25
2023-04-25T22:18:51.234Z,100782.81
2023-04-25T22:21:18.956Z,100787.78
2023-04-25T22:23:47.752Z,100787.63
2023-04-25T22:26:15.188Z,100787.63
2023-04-25T22:28:42.624Z,100795.31
2023-04-25T22:31:10.556Z,100803.44
2023-04-25T22:33:38.096Z,100801.72
2023-04-25T22:36:05.844Z,100808.31
2023-04-25T22:38:33.308Z,100802.00
2023-04-25T22:41:02.145Z,100809.31
2023-04-25T22:43:29.834Z,100808.91
2023-04-25T22:45:58.677Z,100810.88
2023-04-25T22:48:26.221Z,100815.44
2023-04-25T22:51:02.510Z,100819.81
2023-04-25T22:53:31.959Z,100816.91
2023-04-25T22:55:59.418Z,100818.16
2023-04-25T22:58:28.613Z,100834.31
2023-04-25T23:00:56.101Z,100828.19
2023-04-25T23:03:23.684Z,100828.19
2023-04-25T23:05:51.471Z,100834.66
2023-04-25T23:08:19.042Z,100831.81
2023-04-25T23:10:46.590Z,100838.13
2023-04-25T23:13:14.066Z,100839.44
2023-04-25T23:15:42.848Z,100826.53
2023-04-25T23:18:10.355Z,100836.31
2023-04-25T23:20:37.905Z,100839.38
2023-04-25T23:23:05.924Z,100847.47
2023-04-25T23:25:33.498Z,100837.06
2023-04-25T23:28:00.938Z,100841.06
2023-04-25T23:30:28.379Z,100834.47
2023-04-25T23:32:57.174Z,100836.66
2023-04-25T23:35:24.705Z,100841.53
2023-04-25T23:37:52.173Z,100841.41
2023-04-25T23:40:19.631Z,100844.19
2023-04-25T23:42:47.432Z,100848.19
2023-04-25T23:45:16.442Z,100843.59
2023-04-25T23:47:44.139Z,100849.88
2023-04-25T23:50:13.396Z,100848.88
2023-04-25T23:52:40.998Z,100848.28
2023-04-25T23:55:09.741Z,100849.50
2023-04-25T23:57:37.311Z,100852.69
